KMLI/MLI METAR and TAF weather

Enter ICAO airport designator
Station Type Date Time Source
KMLI METAR 2022/05/23 14:52 UTC NOAA

KMLI 231452Z 00000KT 10SM CLR 17/04 A3034 RMK AO2 SLP272 T01670044 50002


Station Type Date Time Source
KMLI Decoded METAR 2022/05/23 14:52 UTC NOAA

MOLINE QUAD-CITY AIRPORT, IL, United States (KMLI) 41-27N 90-31W 184M
May 23, 2022 - 10:52 AM EDT / 2022.05.23 1452 UTC
Wind: Calm:0
Visibility: 10 mile(s):0
Sky conditions: clear
Temperature: 62.1 F (16.7 C)
Dew Point: 39.9 F (4.4 C)
Relative Humidity: 43%
Pressure (altimeter): 30.34 in. Hg (1027 hPa)
Pressure tendency: 0.01 inches (0.2 hPa) higher than three hours ago
ob: KMLI 231452Z 00000KT 10SM CLR 17/04 A3034 RMK AO2 SLP272 T01670044 50002
cycle: 15

Station Type Date Time Source
KMLI TAF 2022/05/23 12:22 UTC NOAA

TAF KMLI 231120Z 2312/2412 02005KT P6SM BKN150
FM231500 07010KT P6SM BKN150
FM240400 08006KT P6SM OVC080

Example: see airport list